Time;durP1;ratioP1;P1;durP2;ratioP2;P2;SDS_P1;SDS_P2;PMS_P1;PMS_P2;Temp;Humidity;BMP_temperature;BMP_pressure;BME280_temperature;BME280_humidity;BME280_pressure;Samples;Min_cycle;Max_cycle;Signal;HPM_P1;HPM_P2
2021/03/07 00:01:59;;;;;;;12.95;8.93;;;;;;;-1.75;75.23;102885.44;5266372;28;20090;-67
2021/03/07 00:04:31;;;;;;;13.20;8.63;;;;;;;-1.77;76.38;102874.31;5264231;28;20039;-67
2021/03/07 00:07:02;;;;;;;11.85;7.90;;;;;;;-1.78;76.20;102884.59;5243772;28;20371;-67
2021/03/07 00:09:33;;;;;;;14.48;8.38;;;;;;;-1.81;75.51;102875.19;5265059;28;20075;-67
2021/03/07 00:12:04;;;;;;;11.65;8.93;;;;;;;-1.79;76.10;102877.75;5246804;28;20023;-68
2021/03/07 00:14:36;;;;;;;12.68;9.18;;;;;;;-1.83;76.60;102876.88;5263613;28;20041;-67
2021/03/07 00:17:07;;;;;;;13.60;8.65;;;;;;;-1.78;75.88;102877.75;5264838;28;20048;-67
2021/03/07 00:19:38;;;;;;;13.63;8.15;;;;;;;-1.86;75.91;102876.88;5263796;28;20029;-67
2021/03/07 00:22:10;;;;;;;12.20;8.95;;;;;;;-1.90;75.81;102885.44;5266489;28;20025;-67
2021/03/07 00:24:41;;;;;;;13.15;9.10;;;;;;;-1.97;76.68;102876.03;5265377;28;20089;-67
2021/03/07 00:27:12;;;;;;;16.50;8.48;;;;;;;-2.02;76.79;102873.47;5263452;28;20410;-68
2021/03/07 00:29:44;;;;;;;13.48;9.23;;;;;;;-2.09;75.97;102878.59;5263834;28;20048;-67
2021/03/07 00:32:16;;;;;;;12.38;8.30;;;;;;;-2.10;76.28;102875.19;5265769;28;20017;-67
2021/03/07 00:34:47;;;;;;;13.05;8.65;;;;;;;-2.14;76.58;102880.31;5264166;28;20112;-67
2021/03/07 00:37:18;;;;;;;14.30;8.70;;;;;;;-2.14;76.80;102875.19;5266148;28;20028;-67
2021/03/07 00:39:50;;;;;;;13.73;9.05;;;;;;;-2.16;76.70;102879.44;5264355;28;20036;-67
2021/03/07 00:42:21;;;;;;;14.43;9.98;;;;;;;-2.18;77.35;102873.47;5265381;28;20292;-67
2021/03/07 00:44:52;;;;;;;15.20;10.40;;;;;;;-2.25;76.86;102873.47;5264867;28;20028;-67
2021/03/07 00:47:24;;;;;;;16.02;10.20;;;;;;;-2.19;76.65;102884.59;5265819;28;20064;-67
2021/03/07 00:49:55;;;;;;;14.85;10.20;;;;;;;-2.24;76.92;102877.72;5263007;28;20514;-67
2021/03/07 00:52:26;;;;;;;14.38;10.18;;;;;;;-2.19;76.91;102874.34;5265394;28;20043;-67
2021/03/07 00:54:58;;;;;;;13.73;9.63;;;;;;;-2.27;77.57;102879.47;5264275;28;20024;-67
2021/03/07 00:57:29;;;;;;;13.73;9.75;;;;;;;-2.31;77.84;102876.03;5266183;28;20025;-67
2021/03/07 01:00:01;;;;;;;15.85;10.00;;;;;;;-2.33;78.26;102870.03;5264678;28;20055;-67
2021/03/07 01:02:32;;;;;;;16.70;10.40;;;;;;;-2.36;77.58;102874.28;5263619;28;20100;-67
2021/03/07 01:05:05;;;;;;;17.38;9.93;;;;;;;-2.37;77.71;102872.59;5263709;28;20033;-67
2021/03/07 01:07:37;;;;;;;15.98;9.77;;;;;;;-2.41;77.78;102871.72;5267223;28;20044;-67
2021/03/07 01:10:15;;;;;;;15.32;10.35;;;;;;;-2.38;77.77;102876.03;5261117;28;20032;-67
2021/03/07 01:12:49;;;;;;;14.95;10.00;;;;;;;-2.46;77.88;102874.28;5264849;28;20037;-67
2021/03/07 01:15:23;;;;;;;13.52;10.02;;;;;;;-2.52;77.77;102856.31;5263200;28;20336;-67
2021/03/07 01:17:56;;;;;;;14.30;9.95;;;;;;;-2.55;78.15;102864.00;5260367;28;20040;-67
2021/03/07 01:20:28;;;;;;;12.80;9.37;;;;;;;-2.60;77.67;102852.88;5260838;28;20029;-67
2021/03/07 01:22:59;;;;;;;18.73;11.05;;;;;;;-2.56;77.57;102856.31;5266487;28;20055;-67
2021/03/07 01:25:31;;;;;;;17.60;9.50;;;;;;;-2.60;78.16;102850.31;5264970;28;20043;-68
2021/03/07 01:28:04;;;;;;;16.88;10.27;;;;;;;-2.59;78.53;102846.03;5260263;28;20371;-67
2021/03/07 01:30:38;;;;;;;14.55;9.07;;;;;;;-2.58;77.83;102851.16;5263431;28;20068;-67
2021/03/07 01:33:10;;;;;;;13.88;9.65;;;;;;;-2.61;78.04;102850.31;5263846;28;20107;-67
2021/03/07 01:35:41;;;;;;;14.00;10.18;;;;;;;-2.63;77.89;102846.88;5261401;28;20086;-68
2021/03/07 01:38:13;;;;;;;13.48;9.23;;;;;;;-2.65;77.10;102844.31;5262753;28;20033;-67
2021/03/07 01:40:47;;;;;;;13.10;9.05;;;;;;;-2.65;78.49;102830.59;5266052;28;20418;-66
2021/03/07 01:43:20;;;;;;;16.83;9.95;;;;;;;-2.73;77.92;102828.91;5245249;28;20028;-66
2021/03/07 01:45:53;;;;;;;14.07;9.32;;;;;;;-2.72;77.61;102820.34;5260679;28;20036;-66
2021/03/07 01:48:24;;;;;;;14.03;9.17;;;;;;;-2.74;78.36;102822.03;5262335;28;20021;-67
2021/03/07 01:50:56;;;;;;;13.35;10.23;;;;;;;-2.73;78.53;102823.78;5262981;28;20277;-66
2021/03/07 01:53:27;;;;;;;16.10;9.60;;;;;;;-2.71;78.38;102821.19;5263140;28;20037;-66
2021/03/07 01:55:59;;;;;;;16.63;10.50;;;;;;;-2.76;78.08;102810.09;5258662;28;20059;-67
2021/03/07 01:58:36;;;;;;;17.83;9.63;;;;;;;-2.78;77.98;102817.75;5259522;28;20036;-67
2021/03/07 02:01:07;;;;;;;13.00;9.23;;;;;;;-2.79;78.74;102803.22;5259366;28;20194;-66
2021/03/07 02:03:52;;;;;;;18.10;9.80;;;;;;;-2.77;78.30;102801.50;5262356;28;20021;-67
2021/03/07 02:06:23;;;;;;;13.55;9.35;;;;;;;-2.80;78.13;102795.53;5261613;28;20085;-67
2021/03/07 02:08:54;;;;;;;17.23;10.70;;;;;;;-2.83;78.91;102800.66;5262422;28;20047;-67
2021/03/07 02:11:27;;;;;;;15.95;10.30;;;;;;;-2.87;79.32;102796.38;5261687;28;20032;-67
2021/03/07 02:14:00;;;;;;;12.13;8.90;;;;;;;-2.81;78.55;102793.81;5260394;28;20029;-67
2021/03/07 02:16:33;;;;;;;12.73;9.43;;;;;;;-2.89;78.46;102795.50;5245368;28;20063;-67
2021/03/07 02:19:06;;;;;;;16.90;10.43;;;;;;;-2.94;79.01;102793.78;5261214;28;20032;-67
2021/03/07 02:21:49;;;;;;;13.18;9.52;;;;;;;-2.91;78.71;102786.97;5261352;28;20037;-67
2021/03/07 02:24:20;;;;;;;14.40;9.75;;;;;;;-3.00;78.29;102786.06;5259691;28;20125;-67
2021/03/07 02:26:52;;;;;;;17.10;9.45;;;;;;;-2.98;77.96;102781.81;5262490;28;20017;-68
2021/03/07 02:29:23;;;;;;;13.23;9.07;;;;;;;-3.05;78.65;102780.09;5258806;28;20238;-68
2021/03/07 02:32:05;;;;;;;13.70;9.65;;;;;;;-2.97;78.45;102780.94;5262068;28;20283;-68
2021/03/07 02:34:41;;;;;;;16.20;10.10;;;;;;;-2.98;79.01;102775.84;5259866;28;20167;-68
2021/03/07 02:37:15;;;;;;;15.43;9.68;;;;;;;-2.97;78.78;102777.53;5258378;28;20033;-67
2021/03/07 02:39:48;;;;;;;16.35;10.35;;;;;;;-3.02;78.71;102774.13;5260033;28;20029;-67
2021/03/07 02:42:22;;;;;;;15.70;10.45;;;;;;;-3.09;78.67;102762.97;5258753;28;20455;-67
2021/03/07 02:45:14;;;;;;;13.20;10.10;;;;;;;-3.00;79.02;102770.69;5259631;28;20526;-68
2021/03/07 02:47:48;;;;;;;12.73;9.45;;;;;;;-3.06;78.84;102767.28;5240488;28;20057;-67
2021/03/07 02:50:23;;;;;;;15.15;10.00;;;;;;;-3.11;78.76;102762.09;5258111;28;20024;-68
2021/03/07 02:53:05;;;;;;;17.70;9.75;;;;;;;-3.07;79.47;102762.97;5258580;28;20120;-68
2021/03/07 02:55:38;;;;;;;15.45;10.82;;;;;;;-3.16;79.67;102757.81;5253297;28;20040;-68
2021/03/07 02:58:13;;;;;;;16.80;10.77;;;;;;;-3.17;79.49;102754.41;5262098;28;20031;-68
2021/03/07 03:00:51;;;;;;;15.52;11.25;;;;;;;-3.22;79.19;102756.97;5253700;28;20074;-68
2021/03/07 03:03:28;;;;;;;16.10;10.73;;;;;;;-3.23;79.29;102742.41;5259407;28;20032;-68
2021/03/07 03:06:00;;;;;;;14.30;9.90;;;;;;;-3.27;79.64;102750.94;5257166;28;20055;-67
2021/03/07 03:08:32;;;;;;;14.27;9.80;;;;;;;-3.31;78.99;102746.66;5258596;28;20801;-68
2021/03/07 03:11:04;;;;;;;15.73;9.93;;;;;;;-3.36;78.61;102738.13;5264864;28;20059;-67
2021/03/07 03:13:37;;;;;;;15.50;10.68;;;;;;;-3.31;79.99;102744.09;5265406;28;20118;-68
2021/03/07 03:16:09;;;;;;;20.17;13.93;;;;;;;-3.46;79.36;102710.75;5263513;28;20029;-67
2021/03/07 03:18:42;;;;;;;20.23;11.50;;;;;;;-3.43;79.48;102729.56;5264551;28;20029;-68
2021/03/07 03:21:14;;;;;;;17.00;9.90;;;;;;;-3.39;80.10;102738.09;5265087;28;20028;-68
2021/03/07 03:23:46;;;;;;;14.60;9.73;;;;;;;-3.45;79.73;102726.13;5244418;28;20543;-68
2021/03/07 03:26:19;;;;;;;15.17;10.83;;;;;;;-3.35;79.71;102723.59;5264457;28;20037;-68
2021/03/07 03:28:51;;;;;;;10.75;8.23;;;;;;;-3.33;79.18;102727.88;5264188;28;20301;-68
2021/03/07 03:31:23;;;;;;;13.32;9.88;;;;;;;-3.44;79.64;102725.28;5244947;28;20045;-68
2021/03/07 03:33:54;;;;;;;15.15;10.52;;;;;;;-3.45;79.36;102726.13;5264566;28;20040;-67
2021/03/07 03:36:25;;;;;;;14.50;9.32;;;;;;;-3.46;79.47;102711.59;5265697;28;20029;-68
2021/03/07 03:39:01;;;;;;;14.35;10.38;;;;;;;-3.41;79.21;102719.28;5266293;28;20024;-68
2021/03/07 03:41:35;;;;;;;21.27;11.95;;;;;;;-3.45;79.33;102715.91;5263492;28;20043;-68
2021/03/07 03:44:09;;;;;;;15.95;10.23;;;;;;;-3.44;79.42;102709.91;5266671;28;20033;-67
2021/03/07 03:46:44;;;;;;;14.13;9.38;;;;;;;-3.44;79.59;102715.03;5263779;28;20490;-67
2021/03/07 03:49:34;;;;;;;16.95;9.68;;;;;;;-3.35;78.38;102711.63;5265402;28;20021;-68
2021/03/07 03:52:08;;;;;;;14.75;9.70;;;;;;;-3.47;79.56;102707.34;5264899;28;20056;-67
2021/03/07 03:54:43;;;;;;;;;;;;;;;-3.22;77.45;102708.28;5264198;28;20676;-68
2021/03/07 03:57:18;;;;;;;13.80;8.88;;;;;;;-3.40;79.47;102710.78;5261960;28;20414;-67
2021/03/07 03:59:51;;;;;;;16.63;9.05;;;;;;;-3.45;79.34;102708.22;5263172;28;20033;-67
2021/03/07 04:02:27;;;;;;;16.67;9.57;;;;;;;-3.49;78.80;102708.16;5263932;28;20363;-67
2021/03/07 04:05:00;;;;;;;11.90;9.30;;;;;;;-3.47;79.06;102714.16;5262508;28;20154;-67
2021/03/07 04:07:33;;;;;;;14.00;10.20;;;;;;;-3.52;79.22;102719.28;5261741;28;20492;-67
2021/03/07 04:10:06;;;;;;;14.85;10.23;;;;;;;-3.46;79.82;102718.44;5263959;28;20025;-67
2021/03/07 04:12:39;;;;;;;13.48;9.70;;;;;;;-3.55;80.05;102718.41;5263891;28;20024;-67
2021/03/07 04:15:11;;;;;;;13.70;9.85;;;;;;;-3.55;79.85;102708.16;5264079;28;20028;-67
2021/03/07 04:17:44;;;;;;;12.23;9.45;;;;;;;-3.62;79.78;102706.44;5263857;28;20057;-67
2021/03/07 04:20:16;;;;;;;14.63;9.02;;;;;;;-3.59;79.63;102703.88;5241406;28;20029;-67
2021/03/07 04:22:48;;;;;;;14.52;9.30;;;;;;;-3.59;79.52;102698.75;5262671;28;20021;-67
2021/03/07 04:25:20;;;;;;;12.50;9.63;;;;;;;-3.60;79.93;102702.16;5263685;28;20436;-67
2021/03/07 04:27:53;;;;;;;18.00;9.75;;;;;;;-3.64;79.20;102695.31;5264278;28;20071;-67
2021/03/07 04:30:25;;;;;;;17.60;9.88;;;;;;;-3.63;80.04;102704.72;5263698;28;20047;-67
2021/03/07 04:32:58;;;;;;;13.57;8.70;;;;;;;-3.67;80.45;102697.03;5263236;28;20090;-67
2021/03/07 04:35:31;;;;;;;16.20;9.75;;;;;;;-3.73;80.31;102691.00;5262305;28;20086;-67
2021/03/07 04:38:05;;;;;;;13.73;8.90;;;;;;;-3.73;79.44;102694.41;5263565;28;20028;-67
2021/03/07 04:40:38;;;;;;;14.27;9.27;;;;;;;-3.70;80.26;102691.03;5263620;28;20040;-67
2021/03/07 04:43:09;;;;;;;;;;;;;;;-3.52;78.67;102690.25;5265092;28;20044;-67
2021/03/07 04:45:40;;;;;;;11.90;8.60;;;;;;;-3.64;79.58;102679.94;5262949;28;19916;-67
2021/03/07 04:48:12;;;;;;;13.52;8.68;;;;;;;-3.69;79.94;102685.03;5261681;28;20314;-67
2021/03/07 04:50:43;;;;;;;13.90;9.38;;;;;;;-3.71;79.78;102679.06;5263334;28;20025;-67
2021/03/07 04:53:15;;;;;;;13.73;8.98;;;;;;;-3.71;79.93;102685.06;5260439;28;20486;-67
2021/03/07 04:55:46;;;;;;;14.23;9.43;;;;;;;-3.78;79.08;102688.44;5261239;28;20128;-67
2021/03/07 04:58:17;;;;;;;13.00;8.93;;;;;;;-3.80;79.95;102686.72;5262199;28;20043;-67
2021/03/07 05:00:48;;;;;;;12.00;8.40;;;;;;;-3.83;79.94;102684.13;5256167;28;20048;-67
2021/03/07 05:03:20;;;;;;;14.73;9.38;;;;;;;-3.86;79.96;102679.88;5260191;28;20951;-67
2021/03/07 05:05:51;;;;;;;15.57;9.60;;;;;;;-3.87;80.86;102683.25;5260513;28;20060;-66
2021/03/07 05:08:24;;;;;;;14.82;8.85;;;;;;;-3.88;80.59;102680.69;5259108;28;20086;-66
2021/03/07 05:10:56;;;;;;;14.80;9.93;;;;;;;-3.87;80.28;102683.25;5261985;28;20029;-66
2021/03/07 05:13:27;;;;;;;13.10;9.18;;;;;;;-3.93;80.59;102678.13;5260562;28;20481;-67
2021/03/07 05:15:58;;;;;;;13.50;8.70;;;;;;;-3.97;80.29;102671.28;5261012;28;20032;-66
2021/03/07 05:18:30;;;;;;;12.43;9.00;;;;;;;-3.96;80.50;102675.53;5262300;28;20442;-66
2021/03/07 05:21:01;;;;;;;12.70;8.05;;;;;;;-3.97;80.32;102671.28;5260959;28;20035;-66
2021/03/07 05:23:32;;;;;;;12.70;8.93;;;;;;;-3.96;80.79;102672.97;5261463;28;20024;-67
2021/03/07 05:26:05;;;;;;;12.23;8.65;;;;;;;-3.96;80.36;102673.84;5262811;28;20482;-66
2021/03/07 05:28:36;;;;;;;11.02;8.15;;;;;;;-3.92;80.13;102682.38;5261268;28;20036;-67
2021/03/07 05:31:07;;;;;;;14.10;9.25;;;;;;;-3.98;79.79;102675.53;5259940;28;20414;-67
2021/03/07 05:33:39;;;;;;;13.25;8.02;;;;;;;-3.91;80.20;102676.41;5258613;28;20016;-67
2021/03/07 05:36:10;;;;;;;11.02;8.55;;;;;;;-3.91;80.13;102672.13;5262348;28;20740;-67
2021/03/07 05:38:41;;;;;;;11.70;9.18;;;;;;;-3.97;80.28;102666.16;5258523;28;20044;-67
2021/03/07 05:41:13;;;;;;;12.15;8.00;;;;;;;-3.92;79.64;102670.44;5261358;28;20043;-67
2021/03/07 05:43:44;;;;;;;11.27;8.65;;;;;;;-3.91;80.33;102668.72;5258331;28;20794;-67
2021/03/07 05:46:16;;;;;;;11.70;9.23;;;;;;;-4.00;80.26;102656.75;5259906;28;20319;-67
2021/03/07 05:48:47;;;;;;;14.48;8.65;;;;;;;-3.96;80.45;102657.63;5260649;28;20504;-67
2021/03/07 05:51:18;;;;;;;12.07;8.95;;;;;;;-3.98;80.56;102662.75;5263552;28;20024;-67
2021/03/07 05:53:50;;;;;;;12.48;8.10;;;;;;;-4.02;80.85;102655.88;5261826;28;20033;-67
2021/03/07 05:56:22;;;;;;;12.25;8.52;;;;;;;-4.04;80.42;102646.50;5258081;28;20482;-67
2021/03/07 05:58:56;;;;;;;12.30;9.07;;;;;;;-4.02;80.59;102655.03;5261935;28;20112;-66
2021/03/07 06:01:29;;;;;;;12.95;8.88;;;;;;;-4.04;80.65;102656.72;5259476;28;20025;-67
2021/03/07 06:04:04;;;;;;;12.32;8.55;;;;;;;-4.03;80.49;102655.88;5260090;28;20400;-67
2021/03/07 06:06:35;;;;;;;13.23;8.75;;;;;;;-4.08;80.48;102647.34;5261776;28;20084;-67
2021/03/07 06:09:26;;;;;;;11.63;8.63;;;;;;;-4.02;80.19;102652.47;5258801;28;20028;-67
2021/03/07 06:12:01;;;;;;;12.77;8.73;;;;;;;-4.13;80.29;102643.88;5256778;28;20044;-67
2021/03/07 06:14:33;;;;;;;12.30;8.15;;;;;;;-4.09;80.35;102648.16;5260462;28;20119;-67
2021/03/07 06:17:10;;;;;;;19.27;8.73;;;;;;;-4.09;80.26;102656.72;5261281;28;20100;-67
2021/03/07 06:20:00;;;;;;;18.80;9.07;;;;;;;-4.05;80.26;102658.44;5258801;28;20090;-67
2021/03/07 06:22:33;;;;;;;17.85;8.85;;;;;;;-4.10;80.54;102662.66;5259150;28;20070;-67
2021/03/07 06:25:12;;;;;;;12.07;8.40;;;;;;;-4.10;80.13;102657.53;5258462;28;20052;-67
2021/03/07 06:27:44;;;;;;;14.23;8.65;;;;;;;-4.12;80.61;102661.81;5261953;28;20107;-67
2021/03/07 06:30:21;;;;;;;13.25;8.50;;;;;;;-4.03;81.16;102661.00;5259727;28;20033;-67
2021/03/07 06:33:00;;;;;;;12.57;8.85;;;;;;;-3.94;81.05;102663.59;5258977;28;20447;-67
2021/03/07 06:35:33;;;;;;;13.07;8.70;;;;;;;-3.96;81.42;102657.63;5259795;28;20493;-67
2021/03/07 06:38:07;;;;;;;14.75;8.15;;;;;;;-3.91;81.14;102659.34;5261584;28;20311;-66
2021/03/07 06:40:43;;;;;;;17.08;9.13;;;;;;;-3.86;81.28;102658.50;5258507;28;20036;-67
2021/03/07 06:43:23;;;;;;;14.68;8.90;;;;;;;-3.77;81.15;102656.84;5260845;28;20091;-67
2021/03/07 06:45:54;;;;;;;16.40;9.75;;;;;;;-3.76;81.00;102657.69;5260890;28;20036;-67
2021/03/07 06:48:35;;;;;;;27.23;10.60;;;;;;;-3.67;82.88;102660.31;5259873;28;20028;-67
2021/03/07 06:51:06;;;;;;;32.53;13.25;;;;;;;-3.69;82.64;102657.72;5262022;28;20517;-67
2021/03/07 06:53:39;;;;;;;37.45;12.93;;;;;;;-3.63;83.99;102661.19;5262813;28;20028;-67
2021/03/07 06:56:11;;;;;;;30.58;13.70;;;;;;;-3.57;83.74;102656.91;5261374;28;20075;-67
2021/03/07 06:58:42;;;;;;;40.55;13.05;;;;;;;-3.55;83.87;102654.38;5260080;28;20115;-68
2021/03/07 07:01:17;;;;;;;29.25;12.55;;;;;;;-3.47;84.39;102656.09;5259794;28;20036;-67
2021/03/07 07:03:58;;;;;;;39.67;12.70;;;;;;;-3.38;84.33;102659.53;5260881;28;20040;-67
2021/03/07 07:06:32;;;;;;;62.83;13.93;;;;;;;-3.35;85.09;102657.81;5261664;28;20394;-66
2021/03/07 07:09:06;;;;;;;23.50;13.30;;;;;;;-3.28;84.61;102662.09;5258849;28;20080;-67
2021/03/07 07:11:44;;;;;;;34.65;13.18;;;;;;;-3.21;85.12;102661.28;5242150;28;20024;-67
2021/03/07 07:14:40;;;;;;;25.83;12.80;;;;;;;-3.11;84.68;102658.69;5250544;28;20028;-67
2021/03/07 07:17:14;;;;;;;31.50;13.63;;;;;;;-3.12;84.97;102660.41;5258215;28;20372;-67
2021/03/07 07:19:47;;;;;;;24.08;13.57;;;;;;;-3.02;85.23;102656.16;5256385;28;20332;-67
2021/03/07 07:22:19;;;;;;;26.15;12.57;;;;;;;-2.95;85.57;102661.31;5258157;28;20105;-67
2021/03/07 07:24:50;;;;;;;22.60;12.40;;;;;;;-2.87;84.92;102663.88;5258435;28;20039;-67
2021/03/07 07:27:22;;;;;;;21.20;12.60;;;;;;;-2.80;85.27;102657.88;5260809;28;20029;-67
2021/03/07 07:29:53;;;;;;;20.02;13.15;;;;;;;-2.81;85.18;102658.72;5259007;28;20212;-67
2021/03/07 07:32:31;;;;;;;22.00;12.55;;;;;;;-2.72;85.05;102658.72;5257878;28;20032;-67
2021/03/07 07:35:14;;;;;;;26.08;13.63;;;;;;;-2.68;85.26;102663.88;5256451;28;20035;-67
2021/03/07 07:37:57;;;;;;;25.47;14.03;;;;;;;-2.60;84.33;102657.88;5258549;28;20032;-66
2021/03/07 07:40:37;;;;;;;24.30;13.70;;;;;;;-2.57;84.77;102659.59;5256895;28;20295;-67
2021/03/07 07:43:09;;;;;;;26.90;15.23;;;;;;;-2.59;85.27;102651.03;5260478;28;20087;-67
2021/03/07 07:45:41;;;;;;;32.85;15.27;;;;;;;-2.54;85.60;102659.56;5256566;28;20037;-67
2021/03/07 07:48:31;;;;;;;25.55;15.05;;;;;;;-2.48;85.43;102654.44;5258862;28;20130;-67
2021/03/07 07:51:31;;;;;;;23.15;15.00;;;;;;;-2.36;85.23;102650.97;5256486;28;20033;-67
2021/03/07 07:54:05;;;;;;;32.10;19.17;;;;;;;-2.36;85.90;102656.97;5257551;28;20029;-67
2021/03/07 07:56:43;;;;;;;;;;;;;;;-2.19;83.72;102646.69;5261473;28;20029;-68
2021/03/07 07:59:14;;;;;;;28.75;17.65;;;;;;;-2.30;84.92;102653.53;5244679;28;19959;-67
2021/03/07 08:01:52;;;;;;;24.52;16.13;;;;;;;-2.22;86.40;102649.25;5261420;28;20120;-67
2021/03/07 08:04:29;;;;;;;21.13;14.88;;;;;;;-2.15;86.85;102655.22;5260837;28;20037;-67
2021/03/07 08:07:00;;;;;;;18.58;12.65;;;;;;;-2.07;86.60;102650.91;5258644;28;20122;-68
2021/03/07 08:09:39;;;;;;;15.82;11.73;;;;;;;-2.04;86.08;102640.63;5260911;28;20436;-68
2021/03/07 08:12:41;;;;;;;18.17;12.57;;;;;;;-1.82;86.83;102652.53;5262585;28;20159;-68
2021/03/07 08:15:25;;;;;;;17.27;12.25;;;;;;;-1.72;87.04;102648.19;5260649;28;20124;-68
2021/03/07 08:17:58;;;;;;;18.50;13.27;;;;;;;-1.65;87.49;102656.75;5261894;28;20537;-68
2021/03/07 08:20:38;;;;;;;17.17;12.77;;;;;;;-1.55;88.00;102651.53;5259967;28;20043;-67
2021/03/07 08:23:15;;;;;;;20.45;12.20;;;;;;;-1.49;87.17;102654.06;5254352;28;20028;-67
2021/03/07 08:25:46;;;;;;;18.00;13.07;;;;;;;-1.36;87.81;102647.16;5256294;28;20051;-67
2021/03/07 08:28:36;;;;;;;18.30;12.32;;;;;;;-1.27;88.05;102651.38;5255225;28;20032;-67
2021/03/07 08:31:31;;;;;;;19.77;12.85;;;;;;;-1.15;88.00;102651.28;5260218;28;20037;-67
2021/03/07 08:34:22;;;;;;;18.08;13.70;;;;;;;-1.09;87.96;102634.97;5241963;28;20032;-67
2021/03/07 08:36:57;;;;;;;23.52;13.43;;;;;;;-1.05;87.62;102641.81;5258859;28;20020;-67
2021/03/07 08:39:29;;;;;;;20.52;12.88;;;;;;;-0.94;88.10;102640.00;5261523;28;20064;-67
2021/03/07 08:42:02;;;;;;;19.65;13.80;;;;;;;-0.81;88.36;102641.59;5261857;28;20415;-67
2021/03/07 08:44:33;;;;;;;23.45;15.10;;;;;;;-0.64;88.35;102644.03;5262284;28;20478;-67
2021/03/07 08:47:04;;;;;;;23.05;15.25;;;;;;;-0.50;88.87;102641.31;5259744;28;20031;-67
2021/03/07 08:49:37;;;;;;;20.98;14.70;;;;;;;-0.37;88.26;102647.19;5243139;28;20036;-67
2021/03/07 08:52:09;;;;;;;18.75;14.10;;;;;;;-0.31;88.43;102642.81;5259986;28;20048;-67
2021/03/07 08:54:41;;;;;;;24.05;15.85;;;;;;;-0.11;88.52;102646.94;5259849;28;20044;-67
2021/03/07 08:57:13;;;;;;;20.15;15.45;;;;;;;0.12;88.73;102644.94;5259819;28;20028;-67
2021/03/07 08:59:45;;;;;;;23.00;14.50;;;;;;;0.28;88.02;102637.00;5261916;28;20553;-67
2021/03/07 09:02:16;;;;;;;20.38;14.50;;;;;;;0.46;87.07;102629.88;5258218;28;21074;-67
2021/03/07 09:04:47;;;;;;;19.52;14.40;;;;;;;0.64;87.50;102631.31;5259785;28;20346;-67
2021/03/07 09:07:30;;;;;;;18.35;13.00;;;;;;;0.85;86.36;102626.72;5258768;28;20115;-68
2021/03/07 09:10:01;;;;;;;18.98;12.27;;;;;;;1.00;85.66;102623.03;5235636;28;20101;-68
2021/03/07 09:12:33;;;;;;;19.40;12.63;;;;;;;1.24;85.47;102621.78;5259411;28;20032;-68
2021/03/07 09:15:08;;;;;;;15.90;11.25;;;;;;;1.29;84.47;102615.66;5254419;28;20595;-67
2021/03/07 09:17:39;;;;;;;18.23;10.85;;;;;;;1.34;84.49;102615.56;5255573;28;20568;-67
2021/03/07 09:20:10;;;;;;;18.77;10.95;;;;;;;1.40;83.92;102620.59;5237513;28;20050;-68
2021/03/07 09:22:42;;;;;;;16.50;10.55;;;;;;;1.45;84.49;102611.91;5257460;28;20032;-68
2021/03/07 09:25:16;;;;;;;18.88;9.98;;;;;;;1.52;83.42;102610.06;5258151;28;20075;-67
2021/03/07 09:27:47;;;;;;;13.70;9.40;;;;;;;1.65;83.12;102610.69;5257900;28;20059;-67
2021/03/07 09:30:20;;;;;;;14.45;9.65;;;;;;;1.74;82.83;102614.81;5256816;28;20053;-67
2021/03/07 09:32:51;;;;;;;14.80;8.75;;;;;;;1.85;82.34;102612.88;5255849;28;20287;-68
2021/03/07 09:35:27;;;;;;;12.35;8.55;;;;;;;1.95;82.02;102607.50;5255863;28;20032;-67
2021/03/07 09:38:02;;;;;;;13.18;7.78;;;;;;;2.07;82.12;102613.28;5258608;28;20431;-68
2021/03/07 09:40:40;;;;;;;12.63;7.22;;;;;;;2.11;79.56;102614.94;5260275;28;20077;-68
2021/03/07 09:43:15;;;;;;;9.55;5.60;;;;;;;2.23;77.54;102613.81;5259282;28;20036;-67
2021/03/07 09:45:49;;;;;;;10.43;5.55;;;;;;;2.31;78.13;102610.19;5254336;28;20130;-68
2021/03/07 09:48:26;;;;;;;9.85;5.63;;;;;;;2.31;77.63;102610.19;5258415;28;20040;-68
2021/03/07 09:50:59;;;;;;;11.23;5.80;;;;;;;2.44;77.10;102595.25;5253785;28;20405;-68
2021/03/07 09:53:35;;;;;;;7.63;4.60;;;;;;;2.50;75.50;102604.59;5240118;28;20024;-68
2021/03/07 09:56:22;;;;;;;6.75;4.43;;;;;;;2.63;76.62;102606.88;5253176;28;20044;-68
2021/03/07 09:58:54;;;;;;;6.18;4.45;;;;;;;2.68;74.40;102599.00;5254742;28;20513;-68
2021/03/07 10:01:26;;;;;;;6.18;4.35;;;;;;;2.82;73.51;102594.34;5257850;28;20628;-68
2021/03/07 10:03:58;;;;;;;6.25;3.92;;;;;;;2.91;72.43;102595.84;5255570;28;20049;-68
2021/03/07 10:06:29;;;;;;;6.15;3.80;;;;;;;2.85;72.27;102585.66;5258415;28;20633;-68
2021/03/07 10:09:07;;;;;;;6.93;4.10;;;;;;;3.08;70.51;102593.69;5256039;28;20382;-68
2021/03/07 10:11:38;;;;;;;8.77;4.20;;;;;;;3.20;71.16;102597.72;5258226;28;20029;-68
2021/03/07 10:14:09;;;;;;;5.60;3.95;;;;;;;3.25;70.09;102605.34;5257572;28;20055;-68
2021/03/07 10:16:40;;;;;;;6.95;4.25;;;;;;;3.33;69.47;102599.09;5257111;28;20040;-68
2021/03/07 10:19:13;;;;;;;7.15;4.38;;;;;;;3.42;69.93;102598.00;5258081;28;20020;-68
2021/03/07 10:21:45;;;;;;;9.73;4.20;;;;;;;3.52;67.52;102598.59;5257097;28;20111;-68
2021/03/07 10:24:19;;;;;;;5.28;4.18;;;;;;;3.40;65.87;102574.72;5258626;28;20031;-68
2021/03/07 10:26:51;;;;;;;4.93;3.67;;;;;;;3.69;65.76;102585.19;5253976;28;20036;-68
2021/03/07 10:29:28;;;;;;;7.68;4.57;;;;;;;3.87;64.98;102589.84;5255620;28;20056;-68
2021/03/07 10:32:04;;;;;;;5.25;3.80;;;;;;;4.02;63.48;102594.59;5257530;28;20029;-68
2021/03/07 10:34:35;;;;;;;6.47;2.90;;;;;;;4.22;57.53;102590.56;5257373;28;20029;-68
2021/03/07 10:37:09;;;;;;;4.80;2.15;;;;;;;4.14;54.61;102581.25;5256314;28;20550;-68
2021/03/07 10:39:50;;;;;;;4.20;1.85;;;;;;;4.20;57.12;102594.91;5256317;28;20089;-68
2021/03/07 10:42:30;;;;;;;4.35;2.00;;;;;;;4.12;55.63;102592.56;5255811;28;20438;-68
2021/03/07 10:45:22;;;;;;;4.25;2.13;;;;;;;4.10;57.98;102591.78;5257208;28;20060;-67
2021/03/07 10:48:05;;;;;;;6.32;2.10;;;;;;;3.96;56.79;102584.38;5260057;28;20124;-67
2021/03/07 10:50:47;;;;;;;5.10;2.33;;;;;;;3.83;55.16;102581.31;5258486;28;20264;-68
2021/03/07 10:53:18;;;;;;;2.88;1.95;;;;;;;3.81;55.97;102579.66;5254762;28;20025;-68
2021/03/07 10:55:51;;;;;;;3.92;1.98;;;;;;;3.69;55.61;102578.25;5256952;28;20441;-68
2021/03/07 10:58:22;;;;;;;3.55;1.70;;;;;;;3.66;55.31;102574.00;5258172;28;20060;-68
2021/03/07 11:00:53;;;;;;;3.85;2.17;;;;;;;3.70;56.52;102576.50;5256727;28;20116;-68
2021/03/07 11:03:24;;;;;;;3.90;2.38;;;;;;;3.90;56.59;102581.97;5258230;28;20056;-68
2021/03/07 11:05:56;;;;;;;4.20;2.00;;;;;;;4.18;55.48;102569.03;5256038;28;20036;-68
2021/03/07 11:08:27;;;;;;;4.70;2.30;;;;;;;4.34;55.27;102577.19;5257959;28;20028;-68
2021/03/07 11:10:58;;;;;;;3.92;2.35;;;;;;;4.46;53.94;102563.00;5258958;28;20028;-68
2021/03/07 11:13:30;;;;;;;3.25;2.72;;;;;;;4.63;53.88;102558.13;5256548;28;20032;-67
2021/03/07 11:16:02;;;;;;;5.95;2.45;;;;;;;4.92;53.11;102562.34;5258111;28;20063;-67
2021/03/07 11:18:34;;;;;;;4.05;2.45;;;;;;;5.11;51.85;102554.75;5258036;28;20024;-67
2021/03/07 11:21:06;;;;;;;4.90;2.80;;;;;;;5.09;51.82;102554.00;5258741;28;20107;-67
2021/03/07 11:23:37;;;;;;;5.80;3.13;;;;;;;5.32;51.06;102551.44;5259787;28;20056;-67
2021/03/07 11:26:09;;;;;;;3.80;2.50;;;;;;;5.47;50.89;102550.03;5258061;28;20418;-67
2021/03/07 11:28:40;;;;;;;5.95;2.80;;;;;;;5.58;50.20;102558.28;5259424;28;20122;-67
2021/03/07 11:31:11;;;;;;;3.92;3.13;;;;;;;5.64;50.56;102553.75;5263046;28;20139;-67
2021/03/07 11:33:42;;;;;;;4.80;3.47;;;;;;;5.55;49.96;102553.19;5260824;28;20025;-67
2021/03/07 11:36:14;;;;;;;5.35;3.42;;;;;;;5.44;49.91;102554.50;5265963;28;20029;-67
2021/03/07 11:38:45;;;;;;;4.47;3.47;;;;;;;5.21;49.81;102553.56;5264694;28;20509;-67
2021/03/07 11:41:16;;;;;;;8.68;5.75;;;;;;;5.19;49.92;102557.97;5260692;28;20028;-67
2021/03/07 11:43:48;;;;;;;8.65;7.47;;;;;;;5.20;48.42;102553.63;5264078;28;20025;-67
2021/03/07 11:46:19;;;;;;;9.52;8.00;;;;;;;5.17;49.78;102556.31;5260873;28;20035;-67
2021/03/07 11:48:50;;;;;;;10.63;8.85;;;;;;;5.32;50.05;102545.38;5242456;28;20028;-67
2021/03/07 11:51:22;;;;;;;10.50;8.45;;;;;;;5.48;49.02;102545.69;5261651;28;20078;-67